Time;durP1;ratioP1;P1;durP2;ratioP2;P2;SDS_P1;SDS_P2;PMS_P1;PMS_P2;Temp;Humidity;BMP_temperature;BMP_pressure;BME280_temperature;BME280_humidity;BME280_pressure;Samples;Min_cycle;Max_cycle;Signal;HPM_P1;HPM_P2
2024/01/25 00:01:13;;;;;;;;;;;15.70;66.20;;;;;;6277742;22;19919;-71
2024/01/25 00:03:38;;;;;;;;;;;15.50;66.30;;;;;;6277088;22;19911;-71
2024/01/25 00:06:07;;;;;;;;;;;15.40;66.10;;;;;;6277663;22;19976;-77
2024/01/25 00:08:33;;;;;;;;;;;15.40;62.00;;;;;;6277954;22;19978;-77
2024/01/25 00:10:59;;;;;;;;;;;15.40;66.30;;;;;;6277171;22;20356;-77
2024/01/25 00:13:24;;;;;;;;;;;15.40;66.70;;;;;;6277179;22;20261;-77
2024/01/25 00:15:50;;;;;;;;;;;15.50;67.30;;;;;;6277151;22;19911;-77
2024/01/25 00:18:16;;;;;;;;;;;15.50;66.60;;;;;;6277334;22;20326;-77
2024/01/25 00:20:41;;;;;;;;;;;15.50;66.40;;;;;;6277124;22;19984;-77
2024/01/25 00:23:07;;;;;;;;;;;15.50;66.80;;;;;;6277084;22;20208;-77
2024/01/25 00:25:32;;;;;;;;;;;15.50;66.60;;;;;;6277161;22;19975;-77
2024/01/25 00:27:58;;;;;;;;;;;15.60;66.20;;;;;;6277037;22;20281;-76
2024/01/25 00:30:23;;;;;;;;;;;15.50;66.40;;;;;;6277039;22;20377;-77
2024/01/25 00:32:49;;;;;;;;;;;15.50;66.80;;;;;;6276639;22;19915;-76
2024/01/25 00:35:15;;;;;;;;;;;15.50;66.50;;;;;;6277281;22;19903;-77
2024/01/25 00:37:41;;;;;;;;;;;15.50;65.40;;;;;;6276257;22;19904;-77
2024/01/25 00:40:07;;;;;;;;;;;15.50;66.20;;;;;;6276838;22;19956;-77
2024/01/25 00:42:34;;;;;;;;;;;15.50;65.10;;;;;;6276557;22;20188;-76
2024/01/25 00:45:00;;;;;;;;;;;15.50;66.60;;;;;;6276831;22;19904;-77
2024/01/25 00:47:26;;;;;;;;;;;15.50;65.70;;;;;;6276763;22;20338;-76
2024/01/25 00:49:52;;;;;;;;;;;15.50;65.30;;;;;;6276905;22;19903;-77
2024/01/25 00:52:18;;;;;;;;;;;15.50;66.20;;;;;;6277356;22;19978;-76
2024/01/25 00:54:44;;;;;;;;;;;15.50;65.60;;;;;;6276885;22;20334;-77
2024/01/25 00:57:10;;;;;;;;;;;15.50;65.30;;;;;;6276827;22;20512;-77
2024/01/25 00:59:36;;;;;;;;;;;15.50;64.50;;;;;;6277168;22;20277;-76
2024/01/25 01:02:04;;;;;;;;;;;15.60;65.90;;;;;;6277260;22;19911;-77
2024/01/25 01:04:30;;;;;;;;;;;15.50;66.50;;;;;;6276512;22;19974;-77
2024/01/25 01:06:56;;;;;;;;;;;15.50;65.70;;;;;;6286921;22;19903;-77
2024/01/25 01:09:21;;;;;;;;;;;15.50;65.70;;;;;;6286741;22;19904;-77
2024/01/25 01:11:47;;;;;;;;;;;15.60;66.30;;;;;;6287010;22;19910;-76
2024/01/25 01:14:12;;;;;;;;;;;15.50;66.30;;;;;;6276870;22;20179;-77
2024/01/25 01:16:38;;;;;;;;;;;15.60;66.60;;;;;;6276818;22;19904;-76
2024/01/25 01:19:07;;;;;;;;;;;15.50;66.20;;;;;;6277071;22;19911;-77
2024/01/25 01:21:33;;;;;;;;;;;15.50;62.50;;;;;;6276548;22;19915;-76
2024/01/25 01:23:59;;;;;;;;;;;15.50;65.90;;;;;;6277042;22;19903;-77
2024/01/25 01:26:25;;;;;;;;;;;15.50;66.20;;;;;;6277023;22;19978;-77
2024/01/25 01:28:51;;;;;;;;;;;15.50;66.20;;;;;;6276974;22;20247;-76
2024/01/25 01:31:17;;;;;;;;;;;15.60;66.00;;;;;;6277155;22;19904;-77
2024/01/25 01:33:43;;;;;;;;;;;15.50;66.10;;;;;;6276627;22;19903;-76
2024/01/25 01:36:09;;;;;;;;;;;15.50;66.00;;;;;;6276741;22;19974;-77
2024/01/25 01:38:34;;;;;;;;;;;15.50;65.90;;;;;;6276817;22;19907;-77
2024/01/25 01:41:00;;;;;;;;;;;15.50;65.70;;;;;;6276378;22;19912;-77
2024/01/25 01:43:26;;;;;;;;;;;15.50;66.00;;;;;;6276255;22;19983;-77
2024/01/25 01:45:53;;;;;;;;;;;15.50;66.10;;;;;;6276272;22;20282;-76
2024/01/25 01:48:18;;;;;;;;;;;15.50;66.20;;;;;;6275958;22;19903;-77
2024/01/25 01:50:44;;;;;;;;;;;15.50;65.90;;;;;;6276333;22;19907;-77
2024/01/25 01:53:10;;;;;;;;;;;15.50;66.00;;;;;;6276930;22;20298;-76
2024/01/25 01:55:37;;;;;;;;;;;15.60;65.90;;;;;;6276462;22;19957;-77
2024/01/25 01:58:03;;;;;;;;;;;15.60;65.60;;;;;;6276752;22;20255;-77
2024/01/25 02:00:30;;;;;;;;;;;15.60;65.60;;;;;;6277131;22;19911;-76
2024/01/25 02:02:59;;;;;;;;;;;15.50;65.60;;;;;;6276517;22;19926;-76
2024/01/25 02:05:25;;;;;;;;;;;15.50;62.90;;;;;;6275965;22;19922;-76
2024/01/25 02:07:52;;;;;;;;;;;15.50;65.90;;;;;;6276607;22;19903;-77
2024/01/25 02:10:18;;;;;;;;;;;15.50;65.70;;;;;;6276711;22;20326;-76
2024/01/25 02:12:44;;;;;;;;;;;15.50;65.30;;;;;;6276329;22;19957;-77
2024/01/25 02:15:10;;;;;;;;;;;15.50;65.80;;;;;;6276582;22;19904;-77
2024/01/25 02:17:36;;;;;;;;;;;15.50;65.80;;;;;;6276517;22;19903;-77
2024/01/25 02:20:03;;;;;;;;;;;15.80;65.90;;;;;;6276097;22;19910;-77
2024/01/25 02:22:29;;;;;;;;;;;15.40;65.30;;;;;;6275958;22;20433;-77
2024/01/25 02:24:55;;;;;;;;;;;15.50;65.70;;;;;;6276502;22;19939;-77
2024/01/25 02:27:21;;;;;;;;;;;15.50;65.70;;;;;;6276508;22;19923;-76
2024/01/25 02:29:46;;;;;;;;;;;15.50;65.90;;;;;;6276734;22;20275;-77
2024/01/25 02:32:12;;;;;;;;;;;15.40;65.70;;;;;;6276056;22;19983;-76
2024/01/25 02:34:38;;;;;;;;;;;15.50;65.80;;;;;;6276049;22;19903;-77
2024/01/25 02:37:05;;;;;;;;;;;15.40;65.80;;;;;;6276039;22;19903;-77
2024/01/25 02:39:31;;;;;;;;;;;15.50;65.60;;;;;;6276095;22;20387;-76
2024/01/25 02:41:57;;;;;;;;;;;15.40;65.60;;;;;;6275916;22;19915;-77
2024/01/25 02:44:23;;;;;;;;;;;15.40;65.50;;;;;;6276316;22;19982;-77
2024/01/25 02:46:49;;;;;;;;;;;15.40;65.70;;;;;;6275879;22;19927;-77
2024/01/25 02:49:14;;;;;;;;;;;15.40;65.60;;;;;;6275726;22;20031;-77
2024/01/25 02:51:39;;;;;;;;;;;15.40;65.50;;;;;;6275788;22;19910;-77
2024/01/25 02:54:05;;;;;;;;;;;15.30;65.70;;;;;;6275732;22;19903;-77
2024/01/25 02:56:34;;;;;;;;;;;15.40;65.70;;;;;;6276262;22;19904;-77
2024/01/25 02:59:00;;;;;;;;;;;15.50;65.40;;;;;;6275805;22;19903;-77
2024/01/25 03:01:26;;;;;;;;;;;15.30;65.20;;;;;;6275102;22;19998;-76
2024/01/25 03:03:51;;;;;;;;;;;15.60;65.60;;;;;;6275671;22;19950;-77
2024/01/25 03:06:16;;;;;;;;;;;15.40;65.50;;;;;;6275501;22;19916;-77
2024/01/25 03:08:42;;;;;;;;;;;15.30;65.30;;;;;;6275768;22;19986;-76
2024/01/25 03:11:07;;;;;;;;;;;15.40;65.70;;;;;;6275630;22;19964;-77
2024/01/25 03:13:34;;;;;;;;;;;15.50;65.60;;;;;;6276101;22;19907;-77
2024/01/25 03:16:00;;;;;;;;;;;15.40;65.30;;;;;;6276126;22;19903;-77
2024/01/25 03:18:26;;;;;;;;;;;15.40;65.50;;;;;;6276089;22;19925;-77
2024/01/25 03:20:52;;;;;;;;;;;15.40;65.60;;;;;;6276078;22;19926;-77
2024/01/25 03:23:17;;;;;;;;;;;15.40;65.40;;;;;;6249322;22;20274;-76
2024/01/25 03:25:43;;;;;;;;;;;16.10;65.50;;;;;;6276298;22;19978;-77
2024/01/25 03:28:11;;;;;;;;;;;15.30;65.60;;;;;;6248441;22;19948;-77
2024/01/25 03:30:36;;;;;;;;;;;15.40;65.30;;;;;;6275565;22;20354;-77
2024/01/25 03:33:02;;;;;;;;;;;15.40;65.50;;;;;;6275421;22;19903;-77
2024/01/25 03:35:27;;;;;;;;;;;15.10;65.10;;;;;;6275513;22;19978;-77
2024/01/25 03:37:53;;;;;;;;;;;15.30;65.50;;;;;;6275461;22;19953;-76
2024/01/25 03:40:18;;;;;;;;;;;15.00;65.30;;;;;;6275272;22;19926;-77
2024/01/25 03:42:44;;;;;;;;;;;15.30;65.20;;;;;;6276001;22;19908;-77
2024/01/25 03:45:09;;;;;;;;;;;15.30;66.10;;;;;;6275378;22;19904;-78
2024/01/25 03:47:35;;;;;;;;;;;15.30;66.00;;;;;;6275314;22;19903;-77
2024/01/25 03:50:00;;;;;;;;;;;15.40;65.80;;;;;;6275339;22;19935;-78
2024/01/25 03:52:29;;;;;;;;;;;15.30;65.40;;;;;;6275369;22;19903;-78
2024/01/25 03:54:55;;;;;;;;;;;15.20;65.20;;;;;;6275954;22;19910;-77
2024/01/25 03:57:21;;;;;;;;;;;15.30;65.80;;;;;;6275312;22;19904;-77
2024/01/25 03:59:46;;;;;;;;;;;15.30;65.80;;;;;;6248189;22;20320;-76
2024/01/25 04:02:12;;;;;;;;;;;15.40;65.40;;;;;;6275069;22;19911;-77
2024/01/25 04:04:37;;;;;;;;;;;15.30;65.90;;;;;;6275734;22;19915;-77
2024/01/25 04:07:03;;;;;;;;;;;15.30;65.90;;;;;;6275415;22;19961;-77
2024/01/25 04:09:28;;;;;;;;;;;15.30;65.10;;;;;;6275329;22;19917;-77
2024/01/25 04:11:54;;;;;;;;;;;15.30;65.80;;;;;;6275577;22;20273;-76
2024/01/25 04:14:20;;;;;;;;;;;15.20;65.90;;;;;;6277051;22;19903;-77
2024/01/25 04:16:46;;;;;;;;;;;15.30;65.50;;;;;;6277089;22;19982;-76
2024/01/25 04:19:12;;;;;;;;;;;15.30;66.00;;;;;;6277225;22;19904;-77
2024/01/25 04:21:38;;;;;;;;;;;15.30;65.30;;;;;;6278169;22;19918;-77
2024/01/25 04:24:04;;;;;;;;;;;15.30;65.60;;;;;;6277095;22;19907;-76
2024/01/25 04:26:29;;;;;;;;;;;15.20;65.00;;;;;;6277139;22;20269;-76
2024/01/25 04:28:55;;;;;;;;;;;15.20;65.80;;;;;;6276835;22;19965;-76
2024/01/25 04:31:20;;;;;;;;;;;15.30;65.70;;;;;;6276872;22;19918;-78
2024/01/25 04:33:46;;;;;;;;;;;15.20;65.50;;;;;;6277507;22;19903;-77
2024/01/25 04:36:12;;;;;;;;;;;15.20;65.70;;;;;;6277425;22;19911;-77
2024/01/25 04:38:38;;;;;;;;;;;15.20;65.60;;;;;;6277370;22;19903;-76
2024/01/25 04:41:05;;;;;;;;;;;15.20;65.40;;;;;;6276897;22;20349;-76
2024/01/25 04:43:34;;;;;;;;;;;15.20;65.40;;;;;;6277373;22;19986;-76
2024/01/25 04:46:00;;;;;;;;;;;15.20;65.80;;;;;;6276916;22;19904;-77
2024/01/25 04:48:25;;;;;;;;;;;15.30;65.70;;;;;;6277526;22;19910;-77
2024/01/25 04:50:51;;;;;;;;;;;15.20;65.20;;;;;;6277501;22;19903;-76
2024/01/25 04:53:16;;;;;;;;;;;15.20;65.70;;;;;;6276930;22;19903;-76
2024/01/25 04:55:42;;;;;;;;;;;15.20;65.60;;;;;;6277086;22;19946;-77
2024/01/25 04:58:07;;;;;;;;;;;15.20;65.30;;;;;;6276844;22;20303;-77
2024/01/25 05:00:33;;;;;;;;;;;15.30;65.50;;;;;;6276833;22;19914;-77
2024/01/25 05:02:59;;;;;;;;;;;15.30;65.20;;;;;;6276823;22;20232;-77
2024/01/25 05:05:24;;;;;;;;;;;15.20;65.50;;;;;;6276561;22;19962;-76
2024/01/25 05:07:50;;;;;;;;;;;15.20;65.50;;;;;;6276767;22;19909;-77
2024/01/25 05:10:15;;;;;;;;;;;15.20;65.30;;;;;;6276804;22;19904;-77
2024/01/25 05:12:41;;;;;;;;;;;15.20;65.70;;;;;;6276685;22;19904;-76
2024/01/25 05:15:06;;;;;;;;;;;15.20;65.50;;;;;;6276752;22;20250;-77
2024/01/25 05:17:33;;;;;;;;;;;15.20;63.70;;;;;;6276501;22;20223;-76
2024/01/25 05:19:58;;;;;;;;;;;15.20;65.30;;;;;;6277251;22;19948;-77
2024/01/25 05:22:24;;;;;;;;;;;15.20;65.50;;;;;;6276522;22;20390;-77
2024/01/25 05:24:49;;;;;;;;;;;15.20;65.50;;;;;;6276264;22;19910;-76
2024/01/25 05:27:15;;;;;;;;;;;15.30;65.50;;;;;;6276458;22;19907;-77
2024/01/25 05:29:40;;;;;;;;;;;15.20;65.60;;;;;;6277274;22;19934;-77
2024/01/25 05:32:06;;;;;;;;;;;15.20;65.50;;;;;;6276583;22;19904;-77
2024/01/25 05:34:31;;;;;;;;;;;15.20;65.30;;;;;;6276392;22;19986;-77
2024/01/25 05:36:57;;;;;;;;;;;15.20;65.20;;;;;;6276568;22;20219;-77
2024/01/25 05:39:22;;;;;;;;;;;15.30;65.40;;;;;;6276488;22;19908;-77
2024/01/25 05:41:48;;;;;;;;;;;15.20;65.20;;;;;;6276993;22;19911;-77
2024/01/25 05:44:13;;;;;;;;;;;15.30;65.30;;;;;;6276350;22;19908;-77
2024/01/25 05:46:39;;;;;;;;;;;15.20;65.50;;;;;;6277005;22;19973;-77
2024/01/25 05:49:05;;;;;;;;;;;15.20;65.30;;;;;;6277610;22;19903;-77
2024/01/25 05:51:31;;;;;;;;;;;15.20;65.30;;;;;;6276383;22;19903;-77
2024/01/25 05:53:57;;;;;;;;;;;15.20;65.40;;;;;;6276485;22;19903;-77
2024/01/25 05:56:23;;;;;;;;;;;15.20;65.50;;;;;;6276846;22;19903;-77
2024/01/25 05:58:49;;;;;;;;;;;15.20;65.30;;;;;;6277032;22;20183;-77
2024/01/25 06:01:14;;;;;;;;;;;15.00;64.60;;;;;;6276689;22;19907;-76
2024/01/25 06:03:40;;;;;;;;;;;15.30;65.20;;;;;;6276928;22;19986;-77
2024/01/25 06:06:07;;;;;;;;;;;15.20;65.30;;;;;;6276528;22;19978;-77
2024/01/25 06:08:34;;;;;;;;;;;15.20;65.10;;;;;;6276679;22;19993;-77
2024/01/25 06:11:00;;;;;;;;;;;15.20;65.20;;;;;;6276736;22;19957;-76
2024/01/25 06:13:26;;;;;;;;;;;15.10;65.20;;;;;;6276569;22;20266;-77
2024/01/25 06:15:52;;;;;;;;;;;15.20;64.90;;;;;;6277254;22;19974;-78
2024/01/25 06:18:18;;;;;;;;;;;15.20;65.00;;;;;;6283885;22;20353;-78
2024/01/25 06:20:44;;;;;;;;;;;15.10;64.70;;;;;;6279124;22;20242;-77
2024/01/25 06:23:10;;;;;;;;;;;14.90;65.20;;;;;;6276253;22;19907;-77
2024/01/25 06:25:36;;;;;;;;;;;15.20;65.20;;;;;;6276315;22;19982;-82
2024/01/25 06:28:03;;;;;;;;;;;15.50;65.30;;;;;;6276744;22;19907;-79
2024/01/25 06:30:29;;;;;;;;;;;15.20;65.20;;;;;;6276188;22;19925;-79
2024/01/25 06:32:55;;;;;;;;;;;15.40;65.10;;;;;;6276705;22;19904;-79
2024/01/25 06:35:21;;;;;;;;;;;15.20;64.80;;;;;;6275986;22;19911;-77
2024/01/25 06:37:47;;;;;;;;;;;15.10;65.10;;;;;;6276064;22;19903;-78
2024/01/25 06:40:12;;;;;;;;;;;15.20;65.20;;;;;;6276035;22;20356;-78
2024/01/25 06:42:38;;;;;;;;;;;15.10;64.80;;;;;;6275885;22;19911;-76
2024/01/25 06:45:04;;;;;;;;;;;15.20;65.10;;;;;;6275909;22;19914;-77
2024/01/25 06:47:29;;;;;;;;;;;15.20;63.80;;;;;;6275907;22;19909;-77
2024/01/25 06:49:55;;;;;;;;;;;15.20;65.30;;;;;;6275704;22;19950;-76
2024/01/25 06:52:20;;;;;;;;;;;15.30;65.00;;;;;;6275689;22;19903;-77
2024/01/25 06:54:46;;;;;;;;;;;15.20;64.80;;;;;;6275712;22;20357;-76
2024/01/25 06:57:14;;;;;;;;;;;15.00;65.10;;;;;;6276488;22;19910;-76
2024/01/25 06:59:39;;;;;;;;;;;15.10;64.40;;;;;;6276321;22;20231;-77
2024/01/25 07:02:05;;;;;;;;;;;15.10;64.00;;;;;;6276351;22;19943;-76
2024/01/25 07:04:31;;;;;;;;;;;15.20;64.60;;;;;;6275164;22;19908;-77
2024/01/25 07:06:56;;;;;;;;;;;15.30;64.60;;;;;;6275687;22;19903;-76
2024/01/25 07:09:22;;;;;;;;;;;15.10;64.40;;;;;;6275872;22;19925;-77
2024/01/25 07:11:47;;;;;;;;;;;15.20;64.40;;;;;;6275742;22;19903;-76
2024/01/25 07:14:13;;;;;;;;;;;15.10;64.50;;;;;;6275991;22;19942;-76
2024/01/25 07:16:38;;;;;;;;;;;15.20;64.60;;;;;;6275810;22;19933;-77
2024/01/25 07:19:04;;;;;;;;;;;15.10;64.70;;;;;;6275855;22;19903;-78
2024/01/25 07:21:32;;;;;;;;;;;15.10;64.60;;;;;;6275766;22;19919;-80
2024/01/25 07:23:59;;;;;;;;;;;15.00;64.50;;;;;;6249618;22;19903;-71
2024/01/25 07:26:25;;;;;;;;;;;14.90;65.10;;;;;;6279208;22;19903;-76
2024/01/25 07:28:53;;;;;;;;;;;15.10;64.60;;;;;;6275513;22;19927;-76
2024/01/25 07:31:20;;;;;;;;;;;15.00;65.20;;;;;;6276247;22;19911;-77
2024/01/25 07:33:45;;;;;;;;;;;15.00;65.20;;;;;;6275551;22;20306;-78
2024/01/25 07:36:11;;;;;;;;;;;15.30;65.20;;;;;;6275454;22;19903;-82
2024/01/25 07:38:36;;;;;;;;;;;15.10;65.30;;;;;;6275580;22;20028;-79
2024/01/25 07:41:02;;;;;;;;;;;15.00;65.30;;;;;;6248344;22;19915;-78
2024/01/25 07:43:27;;;;;;;;;;;15.50;65.50;;;;;;6275715;22;19910;-77
2024/01/25 07:45:53;;;;;;;;;;;15.00;65.20;;;;;;6275539;22;20318;-78
2024/01/25 07:48:18;;;;;;;;;;;15.00;65.10;;;;;;6277127;22;19903;-73
2024/01/25 07:50:44;;;;;;;;;;;15.40;65.20;;;;;;6277919;22;19991;-81
2024/01/25 07:53:10;;;;;;;;;;;15.00;65.20;;;;;;6277436;22;20382;-76
2024/01/25 07:55:36;;;;;;;;;;;15.10;65.00;;;;;;6277530;22;20331;-76
2024/01/25 07:58:02;;;;;;;;;;;15.00;65.10;;;;;;6277417;22;19979;-78
2024/01/25 08:00:27;;;;;;;;;;;15.00;65.40;;;;;;6278129;22;19903;-79
2024/01/25 08:02:52;;;;;;;;;;;15.00;64.70;;;;;;6277448;22;19915;-77
2024/01/25 08:05:18;;;;;;;;;;;15.00;65.20;;;;;;6277238;22;19915;-78
2024/01/25 08:07:44;;;;;;;;;;;15.00;64.80;;;;;;6277321;22;19930;-79
2024/01/25 08:10:10;;;;;;;;;;;15.00;65.50;;;;;;6277350;22;19904;-76
2024/01/25 08:12:35;;;;;;;;;;;15.00;65.00;;;;;;6277302;22;20010;-85
2024/01/25 08:15:01;;;;;;;;;;;15.00;65.10;;;;;;6277152;22;19911;-73
2024/01/25 08:17:26;;;;;;;;;;;14.90;65.30;;;;;;6277108;22;19910;-76
2024/01/25 08:19:52;;;;;;;;;;;15.00;65.10;;;;;;6277867;22;19903;-78
2024/01/25 08:22:17;;;;;;;;;;;15.30;65.10;;;;;;6277104;22;19990;-79
2024/01/25 08:24:43;;;;;;;;;;;14.90;65.20;;;;;;6277229;22;19960;-78
2024/01/25 08:27:08;;;;;;;;;;;15.00;65.30;;;;;;6277066;22;20341;-80
2024/01/25 08:29:34;;;;;;;;;;;15.10;65.10;;;;;;6277748;22;19907;-80
2024/01/25 08:31:59;;;;;;;;;;;15.00;65.10;;;;;;6277123;22;19904;-80
2024/01/25 08:34:25;;;;;;;;;;;14.90;65.40;;;;;;6277073;22;19910;-80
2024/01/25 08:36:50;;;;;;;;;;;14.90;65.10;;;;;;6276965;22;19904;-80
2024/01/25 08:39:16;;;;;;;;;;;15.00;65.10;;;;;;6276814;22;20200;-77
2024/01/25 08:41:43;;;;;;;;;;;14.90;64.90;;;;;;6276978;22;20032;-77
2024/01/25 08:44:09;;;;;;;;;;;15.00;65.20;;;;;;6276800;22;19903;-79
2024/01/25 08:46:34;;;;;;;;;;;14.90;65.10;;;;;;6276817;22;19903;-80
2024/01/25 08:49:00;;;;;;;;;;;15.00;65.10;;;;;;6276806;22;19904;-80
2024/01/25 08:51:25;;;;;;;;;;;15.90;65.60;;;;;;6276883;22;19949;-79
2024/01/25 08:53:51;;;;;;;;;;;14.90;65.30;;;;;;6276858;22;19986;-79
2024/01/25 08:56:19;;;;;;;;;;;15.00;65.10;;;;;;6276900;22;19938;-77
2024/01/25 08:58:47;;;;;;;;;;;15.10;61.00;;;;;;6276292;22;19904;-79
2024/01/25 09:01:13;;;;;;;;;;;14.90;64.90;;;;;;6276475;22;19933;-79
2024/01/25 09:03:38;;;;;;;;;;;14.90;65.50;;;;;;6276497;22;19986;-79
2024/01/25 09:06:05;;;;;;;;;;;14.90;65.50;;;;;;6276284;22;19915;-79
2024/01/25 09:08:31;;;;;;;;;;;15.00;64.90;;;;;;6276682;22;19904;-79
2024/01/25 09:10:58;;;;;;;;;;;15.00;65.00;;;;;;6276576;22;19903;-79
2024/01/25 09:13:23;;;;;;;;;;;14.90;64.80;;;;;;6276566;22;19907;-80
2024/01/25 09:15:49;;;;;;;;;;;14.90;65.20;;;;;;6276607;22;20033;-82
2024/01/25 09:18:14;;;;;;;;;;;14.90;65.50;;;;;;6249493;22;19903;-84
2024/01/25 09:20:40;;;;;;;;;;;15.00;65.10;;;;;;6276833;22;19910;-77
2024/01/25 09:23:06;;;;;;;;;;;15.00;65.40;;;;;;6249539;22;19911;-77
2024/01/25 09:25:32;;;;;;;;;;;14.90;65.50;;;;;;6278653;22;20327;-73
2024/01/25 09:27:57;;;;;;;;;;;15.00;65.50;;;;;;6276348;22;19903;-71
2024/01/25 09:30:23;;;;;;;;;;;15.00;65.60;;;;;;6276452;22;20314;-73
2024/01/25 09:32:49;;;;;;;;;;;15.00;65.70;;;;;;6286588;22;19961;-72
2024/01/25 09:35:14;;;;;;;;;;;15.00;65.60;;;;;;6276213;22;19907;-72
2024/01/25 09:37:40;;;;;;;;;;;15.00;65.20;;;;;;6276448;22;19903;-72
2024/01/25 09:40:05;;;;;;;;;;;15.00;65.90;;;;;;6275982;22;20269;-72
2024/01/25 09:42:31;;;;;;;;;;;15.00;63.90;;;;;;6275767;22;19911;-73
2024/01/25 09:44:57;;;;;;;;;;;15.00;65.70;;;;;;6276072;22;19952;-73
2024/01/25 09:47:23;;;;;;;;;;;15.10;66.00;;;;;;6276096;22;20345;-72
2024/01/25 09:49:48;;;;;;;;;;;15.00;65.60;;;;;;6276320;22;19903;-72
2024/01/25 09:52:15;;;;;;;;;;;15.00;65.80;;;;;;6276080;22;19978;-73
2024/01/25 09:54:40;;;;;;;;;;;15.00;65.90;;;;;;6276843;22;19957;-72
2024/01/25 09:57:13;;;;;;;;;;;15.10;66.60;;;;;;6248799;22;19903;-73
2024/01/25 09:59:39;;;;;;;;;;;15.10;65.90;;;;;;6276195;22;19911;-73
2024/01/25 10:02:04;;;;;;;;;;;15.20;65.10;;;;;;6275901;22;19964;-73
2024/01/25 10:04:30;;;;;;;;;;;15.10;65.90;;;;;;6275887;22;19986;-73
2024/01/25 10:06:56;;;;;;;;;;;15.10;65.90;;;;;;6276149;22;19903;-73
2024/01/25 10:09:22;;;;;;;;;;;15.10;65.70;;;;;;6276027;22;20277;-73
2024/01/25 10:11:48;;;;;;;;;;;15.20;65.80;;;;;;6276065;22;19903;-73
2024/01/25 10:14:13;;;;;;;;;;;15.10;66.20;;;;;;6275854;22;20279;-75
2024/01/25 10:16:39;;;;;;;;;;;15.10;66.00;;;;;;6275935;22;19930;-74
2024/01/25 10:19:06;;;;;;;;;;;15.10;66.00;;;;;;6275838;22;20033;-73
2024/01/25 10:21:32;;;;;;;;;;;15.10;65.90;;;;;;6275842;22;19918;-73
2024/01/25 10:23:58;;;;;;;;;;;15.10;65.90;;;;;;6276486;22;19903;-73
2024/01/25 10:26:28;;;;;;;;;;;15.00;65.70;;;;;;6275835;22;19908;-73
2024/01/25 10:28:54;;;;;;;;;;;15.10;66.20;;;;;;6276254;22;19908;-73
2024/01/25 10:31:22;;;;;;;;;;;15.00;65.90;;;;;;6275834;22;19990;-73
2024/01/25 10:33:48;;;;;;;;;;;15.10;65.90;;;;;;6275990;22;19903;-73
2024/01/25 10:36:13;;;;;;;;;;;15.10;65.80;;;;;;6276527;22;19946;-73
2024/01/25 10:38:40;;;;;;;;;;;15.10;66.00;;;;;;6275707;22;19934;-73
2024/01/25 10:41:05;;;;;;;;;;;15.10;66.00;;;;;;6275825;22;19911;-73
2024/01/25 10:43:31;;;;;;;;;;;15.10;66.00;;;;;;6275639;22;20341;-73
2024/01/25 10:45:58;;;;;;;;;;;15.10;66.30;;;;;;6275824;22;20352;-73
2024/01/25 10:48:27;;;;;;;;;;;15.00;66.10;;;;;;6275761;22;20253;-73
2024/01/25 10:50:53;;;;;;;;;;;15.20;61.40;;;;;;6276287;22;19904;-73
2024/01/25 10:53:19;;;;;;;;;;;15.10;66.20;;;;;;6275698;22;19982;-72
2024/01/25 10:55:45;;;;;;;;;;;15.10;66.00;;;;;;6275761;22;19989;-73
2024/01/25 10:58:14;;;;;;;;;;;15.00;65.80;;;;;;6275782;22;19989;-73
2024/01/25 11:00:39;;;;;;;;;;;15.10;61.40;;;;;;6275585;22;19903;-73
2024/01/25 11:03:08;;;;;;;;;;;15.10;65.50;;;;;;6275598;22;19941;-72
2024/01/25 11:05:33;;;;;;;;;;;15.10;61.40;;;;;;6275484;22;20199;-73
2024/01/25 11:07:59;;;;;;;;;;;15.10;66.30;;;;;;6275653;22;19903;-73
2024/01/25 11:10:25;;;;;;;;;;;15.00;66.20;;;;;;6275597;22;19910;-72
2024/01/25 11:12:54;;;;;;;;;;;15.00;66.00;;;;;;6276257;22;20259;-72
2024/01/25 11:15:29;;;;;;;;;;;15.20;66.20;;;;;;6275516;22;20240;-73
2024/01/25 11:17:54;;;;;;;;;;;14.70;61.20;;;;;;6275546;22;19904;-73
2024/01/25 11:20:24;;;;;;;;;;;15.10;66.00;;;;;;6276189;22;19903;-73
2024/01/25 11:22:55;;;;;;;;;;;15.10;61.50;;;;;;6276920;22;19965;-73
2024/01/25 11:25:20;;;;;;;;;;;15.10;66.20;;;;;;6288377;22;19978;-73
2024/01/25 11:27:47;;;;;;;;;;;15.10;66.10;;;;;;6278018;22;19903;-73
2024/01/25 11:30:13;;;;;;;;;;;15.30;66.50;;;;;;6277533;22;20048;-73
2024/01/25 11:32:39;;;;;;;;;;;15.00;65.70;;;;;;6278165;22;19908;-73
2024/01/25 11:35:08;;;;;;;;;;;15.10;66.00;;;;;;6278256;22;19930;-75
2024/01/25 11:37:36;;;;;;;;;;;15.10;65.50;;;;;;6277920;22;19907;-71
2024/01/25 11:40:03;;;;;;;;;;;15.10;66.00;;;;;;6277990;22;19904;-71
2024/01/25 11:42:30;;;;;;;;;;;15.10;65.10;;;;;;6277405;22;19918;-72
2024/01/25 11:44:56;;;;;;;;;;;15.10;66.00;;;;;;6277976;22;19969;-72
2024/01/25 11:47:22;;;;;;;;;;;15.10;66.20;;;;;;6278336;22;20358;-73
2024/01/25 11:49:48;;;;;;;;;;;15.20;66.30;;;;;;6277401;22;19969;-71
2024/01/25 11:52:14;;;;;;;;;;;15.10;66.20;;;;;;6277410;22;19908;-72
2024/01/25 11:54:40;;;;;;;;;;;15.30;66.50;;;;;;6277308;22;19910;-71
2024/01/25 11:57:06;;;;;;;;;;;15.10;67.20;;;;;;6277749;22;19939;-72
2024/01/25 11:59:31;;;;;;;;;;;15.20;66.20;;;;;;6277433;22;20331;-72
2024/01/25 12:01:57;;;;;;;;;;;15.10;65.70;;;;;;6277816;22;20234;-71
2024/01/25 12:04:24;;;;;;;;;;;15.20;66.40;;;;;;6277099;22;19914;-72
2024/01/25 12:06:49;;;;;;;;;;;15.10;66.30;;;;;;6277346;22;20267;-72
2024/01/25 12:09:15;;;;;;;;;;;15.30;65.80;;;;;;6277261;22;19952;-73
2024/01/25 12:11:41;;;;;;;;;;;15.10;66.60;;;;;;6277249;22;20323;-73
2024/01/25 12:14:07;;;;;;;;;;;15.20;66.30;;;;;;6277790;22;19903;-73
2024/01/25 12:16:33;;;;;;;;;;;15.20;66.40;;;;;;6277680;22;20319;-72
2024/01/25 12:18:58;;;;;;;;;;;15.10;66.20;;;;;;6277195;22;19903;-73
2024/01/25 12:21:24;;;;;;;;;;;16.00;66.90;;;;;;6277127;22;19912;-72
2024/01/25 12:23:50;;;;;;;;;;;15.20;66.40;;;;;;6277215;22;19903;-72
2024/01/25 12:26:16;;;;;;;;;;;15.20;66.40;;;;;;6277058;22;19903;-71
2024/01/25 12:28:42;;;;;;;;;;;15.10;66.30;;;;;;6277205;22;19904;-71
2024/01/25 12:31:08;;;;;;;;;;;15.10;66.30;;;;;;6276982;22;20299;-70
2024/01/25 12:33:34;;;;;;;;;;;15.20;66.40;;;;;;6277592;22;19907;-72
2024/01/25 12:36:00;;;;;;;;;;;15.10;66.30;;;;;;6277066;22;19910;-72
2024/01/25 12:38:27;;;;;;;;;;;15.20;66.50;;;;;;6276918;22;20000;-72
2024/01/25 12:40:52;;;;;;;;;;;15.20;66.40;;;;;;6277244;22;19910;-72
2024/01/25 12:43:18;;;;;;;;;;;15.20;66.30;;;;;;6286911;22;19903;-72
2024/01/25 12:45:44;;;;;;;;;;;15.40;66.50;;;;;;6277260;22;19914;-72
2024/01/25 12:48:10;;;;;;;;;;;15.20;66.50;;;;;;6276650;22;19904;-72
2024/01/25 12:50:36;;;;;;;;;;;15.10;66.40;;;;;;6287051;22;19910;-72
2024/01/25 12:53:02;;;;;;;;;;;15.10;66.40;;;;;;6276803;22;19904;-72
2024/01/25 12:55:31;;;;;;;;;;;15.10;66.50;;;;;;6277011;22;19904;-72
2024/01/25 12:57:58;;;;;;;;;;;15.20;62.10;;;;;;6277011;22;19949;-72
2024/01/25 13:00:24;;;;;;;;;;;15.20;66.70;;;;;;6277338;22;19918;-72
2024/01/25 13:02:49;;;;;;;;;;;15.10;66.20;;;;;;6276365;22;19915;-72
2024/01/25 13:05:15;;;;;;;;;;;15.20;66.70;;;;;;6276356;22;19969;-72
2024/01/25 13:07:41;;;;;;;;;;;15.20;66.50;;;;;;6276973;22;19903;-72
2024/01/25 13:10:06;;;;;;;;;;;15.20;66.80;;;;;;6276535;22;19957;-72
2024/01/25 13:12:32;;;;;;;;;;;15.30;65.20;;;;;;6276795;22;19903;-72
2024/01/25 13:14:57;;;;;;;;;;;15.20;66.80;;;;;;6277135;22;19907;-80
2024/01/25 13:17:25;;;;;;;;;;;15.20;66.70;;;;;;6276461;22;20253;-80
2024/01/25 13:19:50;;;;;;;;;;;15.20;66.50;;;;;;6277092;22;19904;-80
2024/01/25 13:22:17;;;;;;;;;;;15.20;66.80;;;;;;6276223;22;19911;-80
2024/01/25 13:24:43;;;;;;;;;;;15.10;66.80;;;;;;6277070;22;19922;-80
2024/01/25 13:27:08;;;;;;;;;;;15.20;66.50;;;;;;6276487;22;19954;-80
2024/01/25 13:29:34;;;;;;;;;;;15.20;66.70;;;;;;6276615;22;19911;-81
2024/01/25 13:31:59;;;;;;;;;;;15.20;66.60;;;;;;6276435;22;19949;-80
2024/01/25 13:34:25;;;;;;;;;;;15.20;67.00;;;;;;6276379;22;20250;-80
2024/01/25 13:36:50;;;;;;;;;;;15.20;66.80;;;;;;6276553;22;19982;-80
2024/01/25 13:39:16;;;;;;;;;;;15.20;66.80;;;;;;6249102;22;20310;-80
2024/01/25 13:41:41;;;;;;;;;;;15.20;66.70;;;;;;6276909;22;19919;-80
2024/01/25 13:44:07;;;;;;;;;;;15.20;67.20;;;;;;6276159;22;19903;-80
2024/01/25 13:46:32;;;;;;;;;;;15.10;67.00;;;;;;6276384;22;19904;-81
2024/01/25 13:48:58;;;;;;;;;;;15.20;66.90;;;;;;6276264;22;19985;-80
2024/01/25 13:51:23;;;;;;;;;;;15.40;67.00;;;;;;6276204;22;19960;-81
2024/01/25 13:53:49;;;;;;;;;;;15.20;67.00;;;;;;6276368;22;19903;-80
2024/01/25 13:56:14;;;;;;;;;;;15.20;67.00;;;;;;6276293;22;19910;-81
2024/01/25 13:58:40;;;;;;;;;;;15.00;66.70;;;;;;6276140;22;19903;-81
2024/01/25 14:01:05;;;;;;;;;;;15.40;67.20;;;;;;6276104;22;19907;-81
2024/01/25 14:03:31;;;;;;;;;;;15.20;66.60;;;;;;6275923;22;20266;-81
2024/01/25 14:05:57;;;;;;;;;;;15.40;67.10;;;;;;6274833;22;19915;-81
2024/01/25 14:08:22;;;;;;;;;;;15.20;66.80;;;;;;6274713;22;19975;-81